Reese River Valley, Nevada Weather observations

Data are for 10 minute period ending at time listed.
 Day   Time   Solar   Ave.   Ave.  Ave.  Vector  Max.   Baro.   Total    
  of    of     Rad.   Air    Rel.  Wind   Wind   Wind  Press.  Precip.   
Year   Day            Temp.  Hum.  Speed  Dir.   Gust                    
2016   (PST)  Kw/m2    F      %     mph   deg.    mph    mb.     in.     
-------------------------------------------------------------------------
 205   10:30   1.01   80.1    16    3.0    24     5.9   819.0    0.00 
 205   10:40   1.03   80.1    17    5.9    16    10.6   818.9    0.00 
 205   10:50   1.04   82.2    15    2.9    84     8.0   818.8    0.00 
 205   11:00   1.05   80.8    18    5.4    52    11.2   818.7    0.00 
 205   11:10   1.06   82.5    15    2.8    36     8.6   818.6    0.00 
 205   11:20   1.07   82.3    20    4.4     3     9.6   818.5    0.00 
 205   11:30   1.07   83.0    12    3.4    19     9.2   818.4    0.00 
 205   11:40   1.08   83.9    14    4.1   306     9.0   818.3    0.00 
 205   11:50   1.08   83.2    14    6.1   262    11.5   818.2    0.00 
 205   12:00   1.08   83.3    16    5.8   325    12.1   818.1    0.00 
 205   12:10   1.08   83.8    11    4.6   346    16.2   818.0    0.00 
 205   12:20   1.08   84.7    12    3.0    26     8.4   817.9    0.00 
 205   12:30   1.08   88.2    11    1.1    17     4.5   817.8    0.00 
 205   12:40   1.07   86.8    16    3.1    92     5.8   817.6    0.00 
 205   12:50   1.06   85.9    16    2.9    65     7.5   817.5    0.00 
 205   13:00   1.05   85.9    11    6.1   350    14.5   817.4    0.00 
 205   13:10   1.04   85.7    11    5.2   340    14.3   817.2    0.00 
 205   13:20   1.03   84.0    16    9.0   280    14.2   817.2    0.00 
 205   13:30   1.01   85.4    10    4.7   146     9.9   817.1    0.00 
 205   13:40   1.00   84.4    14    9.6   295    17.3   817.0    0.00 
 205   13:50   0.98   84.0    12    9.6   277    18.2   816.9    0.00 
 205   14:00   0.96   85.3    12    6.4   307    13.4   816.9    0.00 
 205   14:10   0.94   85.1    12    7.7   322    14.3   816.8    0.00 
 205   14:20   0.92   85.2    13    7.6   307    17.0   816.7    0.00 
 205   14:30   0.89   84.6    12   11.1   301    20.6   816.6    0.00 
 205   14:40   0.87   84.1    13   10.6   307    18.1   816.5    0.00 
 205   14:50   0.84   84.5    15    9.3   291    22.0   816.4    0.00 
 205   15:00   0.82   84.1    13   12.6   283    18.9   816.3    0.00 
 205   15:10   0.79   83.8    14    8.2   280    15.5   816.4    0.00 
 205   15:20   0.76   84.3    13    9.7   272    15.8   816.3    0.00 
 205   15:30   0.72   84.5    12    9.2   310    18.2   816.2    0.00 
 205   15:40   0.69   83.5    13   10.3   287    17.6   816.2    0.00 
 205   15:50   0.65   84.0    13    8.6   277    16.4   816.2    0.00 
 205   16:00   0.62   84.1    12    7.5   303    14.0   816.2    0.00 
 205   16:10   0.59   84.3    15    6.9   300    14.6   816.2    0.00 
 205   16:20   0.56   83.2    14    9.9   294    17.0   816.1    0.00 
 205   16:30   0.52   82.7    14   10.5   264    15.9   816.2    0.00 
 205   16:40   0.48   82.3    14    9.3   281    19.1   816.2    0.00 
 205   16:50   0.45   81.8    13    9.5   286    15.1   816.2    0.00 
 205   17:00   0.41   81.2    15    7.1   270    11.2   816.1    0.00 
 205   17:10   0.38   80.8    14    7.5   299    12.2   816.1    0.00 
 205   17:20   0.34   81.3    12    8.0   303    13.3   816.1    0.00 
 205   17:30   0.31   80.4    13    6.5   281    10.5   816.1    0.00 
 205   17:40   0.27   79.0    13    6.9   282    10.7   816.1    0.00 
 205   17:50   0.24   79.6    13    5.1   277     8.5   816.2    0.00 
 205   18:00   0.20   79.3    14    3.6   293     5.9   816.2    0.00 
 205   18:10   0.17   77.7    16    4.3   294     6.6   816.2    0.00 
 205   18:20   0.14   76.9    15    4.4   268     8.2   816.3    0.00 
 205   18:30   0.11   77.4    13    4.7   252     6.4   816.3    0.00 
 205   18:40   0.08   76.7    13    4.5   255     5.3   816.5    0.00 
 205   18:50   0.02   73.0    12    5.6   242     6.8   816.6    0.00 
 205   19:00   0.01   72.7     9    3.5   207     5.6   816.7    0.00 
 205   19:10   0.01   65.2    23    3.4    94     7.6   816.9    0.00 
 205   19:20   0.00   66.0    15    2.5    71     4.1   817.0    0.00 
 205   19:30   0.00   66.8    18    3.5    82     5.1   817.1    0.00 
 205   19:40   0.00   65.1    21    5.0    67     6.8   817.2    0.00 
 205   19:50   0.00   62.9    26    2.4    75     4.0   817.3    0.00 
 205   20:00   0.00   58.3    24    4.1   208     6.1   817.5    0.00 
 205   20:10   0.00   57.3    16    5.4   167     7.5   817.6    0.00 
 205   20:20   0.00   56.1    15    5.7   160     6.7   817.8    0.00 
 205   20:30   0.00   56.4    14    5.0   164     6.4   817.8    0.00 
 205   20:40   0.00   56.3    14    4.0   166     5.3   818.0    0.00 
 205   20:50   0.00   55.0    14    5.0   165     6.1   818.0    0.00 
 205   21:00   0.00   53.7    28    3.7   169     6.0   818.1    0.00 
 205   21:10   0.00   50.2    30    6.3   217     7.5   818.1    0.00 
 205   21:20   0.00   54.5    17    5.3   185     6.9   818.0    0.00 
 205   21:30   0.00   53.3    23    6.0   198     7.3   818.0    0.00 
 205   21:40   0.00   54.7    16    5.1   172     7.3   817.9    0.00 
 205   21:50   0.00   53.8    17    5.1   181     6.7   817.8    0.00 
 205   22:00   0.00   53.4    15    6.3   165     8.5   817.7    0.00 
 205   22:10   0.00   51.0    16    5.9   161     7.7   817.8    0.00 
 205   22:20   0.00   50.5    15    4.4   166     6.1   817.7    0.00 
 205   22:30   0.00   51.0    17    4.0   176     5.3   817.7    0.00 
 205   22:40   0.00   49.5    26    6.2   218     8.4   817.8    0.00 
 205   22:50   0.00   48.4    28    5.9   228     7.6   817.8    0.00 
 205   23:00   0.00   46.1    29    6.5   232     8.8   817.7    0.00 
 205   23:10   0.00   47.5    25    6.0   209     8.6   817.8    0.00 
 205   23:20   0.00   47.7    20    4.1   169     5.6   817.9    0.00 
 205   23:30   0.00   48.6    18    4.4   174     6.2   817.9    0.00 
 205   23:40   0.00   48.7    20    5.0   187     7.0   817.9    0.00 
 205   23:50   0.00   46.0    31    5.9   220     7.7   817.9    0.00 
 206    0:00   0.00   44.4    29    5.7   216     7.9   817.8    0.00 
 206    0:10   0.00   45.1    24    5.2   193     6.8   817.7    0.00 
 206    0:20   0.00   44.7    27    4.4   209     5.8   817.7    0.00 
 206    0:30   0.00   43.6    30    6.5   221     8.5   817.7    0.00 
 206    0:40   0.00   43.6    29    5.8   206     8.0   817.8    0.00 
 206    0:50   0.00   43.0    30    5.4   198     6.2   817.7    0.00 
 206    1:00   0.00   43.4    23    4.8   181     7.9   817.7    0.00 
 206    1:10   0.00   44.7    27    4.9   196     8.2   817.6    0.00 
 206    1:20   0.00   44.3    28    3.8   187     5.8   817.6    0.00 
 206    1:30   0.00   42.2    33    6.0   213     7.9   817.5    0.00 
 206    1:40   0.00   42.1    29    6.7   200     8.7   817.4    0.00 
 206    1:50   0.00   41.5    31    5.9   206     7.4   817.4    0.00 
 206    2:00   0.00   40.3    34    6.8   213     8.9   817.5    0.00 
 206    2:10   0.00   41.8    32    6.7   230     8.6   817.5    0.00 
 206    2:20   0.00   42.4    30    5.7   210     7.5   817.5    0.00 
 206    2:30   0.00   42.3    24    5.3   171     7.2   817.4    0.00 
 206    2:40   0.00   43.1    23    5.5   184     7.2   817.5    0.00 
 206    2:50   0.00   43.2    28    5.7   206     7.6   817.5    0.00 
 206    3:00   0.00   41.1    31    6.0   207     8.0   817.5    0.00 
 206    3:10   0.00   40.6    32    5.7   197     7.3   817.6    0.00 
 206    3:20   0.00   40.5    32    5.6   202     8.2   817.5    0.00 
 206    3:30   0.00   40.5    29    5.1   189     6.5   817.5    0.00 
 206    3:40   0.00   39.1    35    4.7   199     6.0   817.5    0.00 
 206    3:50   0.00   38.6    38    5.1   215     6.9   817.5    0.00 
 206    4:00   0.00   39.3    37    5.9   221     7.5   817.6    0.00 
 206    4:10   0.00   39.3    35    5.0   203     7.8   817.6    0.00 
 206    4:20   0.00   38.6    37    5.4   202     6.8   817.7    0.00 
 206    4:30   0.00   39.0    36    6.1   218     7.7   817.8    0.00 
 206    4:40   0.00   39.1    36    4.6   205     6.8   817.8    0.00 
 206    4:50   0.01   38.8    34    5.1   190     6.4   817.9    0.00 
 206    5:00   0.01   38.4    36    4.5   194     6.1   818.0    0.00 
 206    5:10   0.01   38.4    38    5.7   200     7.1   818.0    0.00 
 206    5:20   0.02   39.2    36    4.8   192     6.8   818.1    0.00 
 206    5:30   0.09   40.6    33    4.8   192     7.4   818.1    0.00 
 206    5:40   0.12   43.8    31    3.9   190     6.1   818.0    0.00 
 206    5:50   0.15   46.9    32    3.3   209     5.3   818.0    0.00 
 206    6:00   0.18   48.8    34    4.3   230     5.9   818.0    0.00 
 206    6:10   0.21   50.7    34    3.8   229     5.9   818.1    0.00 
 206    6:20   0.25   52.7    32    4.6   226     6.4   818.1    0.00 
 206    6:30   0.28   55.0    30    4.7   225     6.2   818.2    0.00 
 206    6:40   0.32   57.2    30    4.3   229     6.4   818.2    0.00 
 206    6:50   0.35   59.2    31    3.8   238     5.2   818.4    0.00 
 206    7:00   0.39   61.4    31    3.9   244     5.8   818.5    0.00 
 206    7:10   0.42   63.6    28    2.8   246     5.3   818.6    0.00 
 206    7:20   0.46   66.1    21    1.8   242     3.1   818.6    0.00 
 206    7:30   0.49   69.4    15    0.2   203     1.6   818.7    0.00 
 206    7:40   0.53   70.9    17    0.9    49     2.3   818.8    0.00 
 206    7:50   0.56   71.8    16    0.6    67     1.8   818.8    0.00 
 206    8:00   0.60   71.8    18    1.9    90     3.8   818.7    0.00 
 206    8:10   0.63   72.3    20    1.3    74     3.5   818.7    0.00 
 206    8:20   0.67   72.3    23    2.5    18     4.9   818.7    0.00 
 206    8:30   0.70   71.7    21    3.3    20     5.5   818.6    0.00 
 206    8:40   0.73   72.0    23    3.4    34     5.8   818.5    0.00 
 206    8:50   0.76   73.2    21    2.2    32     4.7   818.4    0.00 
 206    9:00   0.79   75.0    19    2.0    55     3.7   818.3    0.00 
 206    9:10   0.82   76.5    15    1.3    24     3.3   818.2    0.00 
 206    9:20   0.84   77.1    20    2.7    36     4.6   818.1    0.00 
 206    9:30   0.87   76.9    18    4.0   343     9.0   818.0    0.00 
 206    9:40   0.89   77.2    19    4.3     9     8.0   817.9    0.00 
 206    9:50   0.92   77.5    18    4.4     2     8.1   817.8    0.00 
 206   10:00   0.94   78.0    21    4.5    17     8.0   817.7    0.00 
 206   10:10   0.95   78.9    19    5.7     2     9.1   817.6    0.00 
 206   10:20   0.97   79.7    16    5.9   342    11.3   817.5    0.00 

Return to Reese River Valley graphs page.


Western Regional Climate Center,wrcc@dri.edu